目前分類:開盒報告 (41)

瀏覽方式: 標題列表 簡短摘要
發表時間 文章標題 人氣 留言
2016-08-29 BRONCO威駿 1/48 CURTISS P-40C(HAWK81-A2)寇帝斯 P-40C飛虎隊 (305) (0)
2016-08-29 KINETIC 1/48 ROCAF F-16A/B 70TH FLYING TIGERS (361) (0)
2016-04-11 造型村 A-1H SKYRAIDER U.S.NAVY (193) (1)
2014-05-11 KINETIC 1/48 ROCAF Mirage2000-5EI (804) (7)
2014-04-18 KITTY HAWK 1/48 SH-2F (579) (0)
2014-04-15 MRC 1/48 H-34 (179) (0)
2014-04-11 TRUMPETER 1/48 HU-16A (291) (2)
2012-12-14 ACADEMY 1/48 R.O.C.N 500MD/ASW (314) (5)
2011-10-24 ITALERI 1/48 S-3A/B (136) (1)
2011-10-15 模力堂 1/48 AT-3自強號戰機 (1554) (3)
2011-04-23 AFV CLUB 1/48 F-5F (448) (1)
2011-04-09 KINETIC 1/48 M2000-5DI (238) (2)
2011-04-04 KINETIC 1/48 S-2F (448) (5)
2011-04-03 TRUMPETER 1/48 F-100F (190) (2)
2010-11-22 1/48 TA-4J SKY HAWK (59) (0)
2010-11-15 AFV CLUB 1/48 R.O.C. F-5E (834) (0)
2010-09-16 KINETIC 1/48 E-2C HAWKEYE 2000 (289) (3)
2010-08-18 AFV CLUB 1/48 RF-5E (181) (2)
2010-08-10 TRUMPETER 1/72 FBC-1 (80) (0)
2010-06-10 TAMIYA 1/48 U.S.NAVY PILOTS w/"MOTO-TUG" (88) (2)
2010-05-30 1/72 小號手F-8II FINBACK-B (228) (2)
2010-04-26 AFV CLUB 1/48 NORTHROP F-5E (98) (2)
2010-04-21 TAMIYA 1/48 P-51D (137) (2)
2010-04-18 TRUMPETER 1/48 F-100C SUPER SABRE (93) (1)
2009-10-02 ACADEMY 1/48 CH-46E直升機 (125) (3)
2009-09-29 ACADEMY 1/35 OH-58D (255) (2)
2009-08-21 KINETIC 1/48 ROCAF F-16A/B (1767) (10)
2009-08-18 KINETIC 1/48 ISRAEL F-16I (406) (2)
2009-04-29 ITALERY 1/72 C-119G FLYING BOX CAR 飛行箱車 (86) (2)
2008-12-26 1/32 小號手SBD-1/2無畏式 (356) (10)
2008-11-18 AFV戰鷹1/35 S-70C空軍海鷗救護直昇機 (1087) (11)
2008-09-18 小號手1/48 C-47A SKYTRAIN (172) (8)
2008-09-02 TAMIYA 1/72 SUKHOI SU-34 (523) (2)
2008-08-17 FUJIMI 1/72 E-2K HAWKEYE 2000中民國空軍塗裝 (116) (1)
2008-07-30 Revell 1/144 Airbus A380 (354) (4)
2008-07-30 虎翼1/48F-86國軍水貼 (216) (0)
2008-07-27 ACADEMY 1/48 F-86F MIG KILLER (450) (7)
2008-07-23 TESTORS 1/48 T-33A Trainer (106) (2)
2008-02-21 TAMIYA 1/32 三菱海軍零式艦上戰鬥機21型 (403) (3)
2008-02-08 TAMIYA 1/48 F4U-1D (659) (0)
2008-02-08 ACADEMY 1/48 CH-53E超級種馬 (732) (7)